sensor_id;sensor_type;location;lat;lon;timestamp;pressure;altitude;pressure_sealevel;temperature;humidity
84316;BME280;74496;52.236;5.164;2024-01-16T00:00:16;100862.25;;;2.49;76.48
84316;BME280;74496;52.236;5.164;2024-01-16T00:02:44;100876.78;;;2.53;76.44
84316;BME280;74496;52.236;5.164;2024-01-16T00:05:11;100876.78;;;2.53;77.34
84316;BME280;74496;52.236;5.164;2024-01-16T00:07:39;100869.56;;;2.58;77.37
84316;BME280;74496;52.236;5.164;2024-01-16T00:10:07;100853.88;;;2.44;77.30
84316;BME280;74496;52.236;5.164;2024-01-16T00:12:34;100849.84;;;2.54;77.40
84316;BME280;74496;52.236;5.164;2024-01-16T00:15:00;100845.19;;;2.59;77.37
84316;BME280;74496;52.236;5.164;2024-01-16T00:17:27;100838.06;;;2.63;77.48
84316;BME280;74496;52.236;5.164;2024-01-16T00:19:55;100849.41;;;2.62;77.42
84316;BME280;74496;52.236;5.164;2024-01-16T00:22:25;100850.84;;;2.67;76.95
84316;BME280;74496;52.236;5.164;2024-01-16T00:24:52;100847.94;;;2.72;76.89
84316;BME280;74496;52.236;5.164;2024-01-16T00:27:19;100849.22;;;2.65;76.82
84316;BME280;74496;52.236;5.164;2024-01-16T00:29:46;100847.72;;;2.61;76.88
84316;BME280;74496;52.236;5.164;2024-01-16T00:32:12;100843.03;;;2.51;76.62
84316;BME280;74496;52.236;5.164;2024-01-16T00:34:41;100846.75;;;2.47;76.45
84316;BME280;74496;52.236;5.164;2024-01-16T00:37:09;100845.97;;;2.45;77.02
84316;BME280;74496;52.236;5.164;2024-01-16T00:39:36;100844.31;;;2.44;77.26
84316;BME280;74496;52.236;5.164;2024-01-16T00:42:03;100843.81;;;2.38;77.60
84316;BME280;74496;52.236;5.164;2024-01-16T00:44:31;100849.25;;;2.33;77.22
84316;BME280;74496;52.236;5.164;2024-01-16T00:46:58;100845.06;;;2.30;77.62
84316;BME280;74496;52.236;5.164;2024-01-16T00:49:26;100850.34;;;2.29;77.33
84316;BME280;74496;52.236;5.164;2024-01-16T00:51:53;100858.16;;;2.29;77.53
84316;BME280;74496;52.236;5.164;2024-01-16T00:54:21;100858.25;;;2.27;76.73
84316;BME280;74496;52.236;5.164;2024-01-16T00:56:48;100858.31;;;2.26;77.63
84316;BME280;74496;52.236;5.164;2024-01-16T00:59:15;100861.75;;;2.26;77.56
84316;BME280;74496;52.236;5.164;2024-01-16T01:01:42;100861.53;;;2.31;77.27
84316;BME280;74496;52.236;5.164;2024-01-16T01:04:08;100866.97;;;2.26;77.08
84316;BME280;74496;52.236;5.164;2024-01-16T01:06:35;100867.91;;;2.25;77.28
84316;BME280;74496;52.236;5.164;2024-01-16T01:09:02;100875.59;;;2.27;77.21
84316;BME280;74496;52.236;5.164;2024-01-16T01:11:30;100869.72;;;2.23;77.14
84316;BME280;74496;52.236;5.164;2024-01-16T01:13:57;100873.88;;;2.27;77.16
84316;BME280;74496;52.236;5.164;2024-01-16T01:16:24;100876.63;;;2.24;77.43
84316;BME280;74496;52.236;5.164;2024-01-16T01:18:51;100874.25;;;2.20;77.39
84316;BME280;74496;52.236;5.164;2024-01-16T01:21:18;100874.19;;;2.21;78.00
84316;BME280;74496;52.236;5.164;2024-01-16T01:23:44;100880.16;;;2.23;77.61
84316;BME280;74496;52.236;5.164;2024-01-16T01:26:11;100881.50;;;2.30;77.80
84316;BME280;74496;52.236;5.164;2024-01-16T01:28:40;100895.88;;;2.38;77.46
84316;BME280;74496;52.236;5.164;2024-01-16T01:31:08;100905.69;;;2.48;76.81
84316;BME280;74496;52.236;5.164;2024-01-16T01:33:35;100913.25;;;2.53;77.64
84316;BME280;74496;52.236;5.164;2024-01-16T01:36:02;100910.97;;;2.63;77.85
84316;BME280;74496;52.236;5.164;2024-01-16T01:38:28;100914.00;;;2.71;77.70
84316;BME280;74496;52.236;5.164;2024-01-16T01:40:56;100911.22;;;2.74;78.12
84316;BME280;74496;52.236;5.164;2024-01-16T01:43:23;100906.75;;;2.92;77.56
84316;BME280;74496;52.236;5.164;2024-01-16T01:46:06;100904.81;;;2.79;77.69
84316;BME280;74496;52.236;5.164;2024-01-16T01:48:35;100905.31;;;2.86;77.88
84316;BME280;74496;52.236;5.164;2024-01-16T01:51:02;100897.00;;;2.79;78.11
84316;BME280;74496;52.236;5.164;2024-01-16T01:53:31;100876.13;;;2.95;77.60
84316;BME280;74496;52.236;5.164;2024-01-16T01:55:59;100877.88;;;2.80;78.31
84316;BME280;74496;52.236;5.164;2024-01-16T01:58:27;100875.44;;;2.77;78.29
84316;BME280;74496;52.236;5.164;2024-01-16T02:00:54;100882.41;;;2.77;78.79
84316;BME280;74496;52.236;5.164;2024-01-16T02:03:23;100877.38;;;2.74;78.79
84316;BME280;74496;52.236;5.164;2024-01-16T02:05:51;100888.00;;;2.85;78.54
84316;BME280;74496;52.236;5.164;2024-01-16T02:08:18;100886.91;;;2.89;78.52
84316;BME280;74496;52.236;5.164;2024-01-16T02:10:47;100880.53;;;2.79;78.58
84316;BME280;74496;52.236;5.164;2024-01-16T02:13:15;100885.56;;;2.82;78.58
84316;BME280;74496;52.236;5.164;2024-01-16T02:15:44;100884.25;;;2.75;78.18
84316;BME280;74496;52.236;5.164;2024-01-16T02:18:10;100890.13;;;2.78;78.36
84316;BME280;74496;52.236;5.164;2024-01-16T02:20:38;100885.84;;;2.77;78.72
84316;BME280;74496;52.236;5.164;2024-01-16T02:23:07;100889.19;;;2.79;78.96
84316;BME280;74496;52.236;5.164;2024-01-16T02:25:35;100884.06;;;2.94;78.17
84316;BME280;74496;52.236;5.164;2024-01-16T02:28:02;100878.25;;;2.89;78.33
84316;BME280;74496;52.236;5.164;2024-01-16T02:30:28;100878.44;;;2.86;78.72
84316;BME280;74496;52.236;5.164;2024-01-16T02:32:56;100868.78;;;2.88;78.57
84316;BME280;74496;52.236;5.164;2024-01-16T02:35:22;100866.94;;;2.90;78.51
84316;BME280;74496;52.236;5.164;2024-01-16T02:37:49;100869.59;;;2.88;78.62
84316;BME280;74496;52.236;5.164;2024-01-16T02:40:16;100866.72;;;2.93;78.50
84316;BME280;74496;52.236;5.164;2024-01-16T02:42:44;100875.22;;;2.96;78.31
84316;BME280;74496;52.236;5.164;2024-01-16T02:45:11;100881.19;;;2.98;78.09
84316;BME280;74496;52.236;5.164;2024-01-16T02:47:38;100876.78;;;2.99;78.42
84316;BME280;74496;52.236;5.164;2024-01-16T02:50:06;100879.41;;;2.99;78.26
84316;BME280;74496;52.236;5.164;2024-01-16T02:52:35;100881.19;;;2.98;78.71
84316;BME280;74496;52.236;5.164;2024-01-16T02:55:01;100882.84;;;2.99;78.37
84316;BME280;74496;52.236;5.164;2024-01-16T02:57:28;100884.72;;;2.97;78.58
84316;BME280;74496;52.236;5.164;2024-01-16T02:59:56;100881.19;;;2.98;78.24
84316;BME280;74496;52.236;5.164;2024-01-16T03:02:23;100872.94;;;3.06;78.02
84316;BME280;74496;52.236;5.164;2024-01-16T03:04:50;100874.97;;;3.01;78.58
84316;BME280;74496;52.236;5.164;2024-01-16T03:07:16;100880.94;;;3.03;78.34
84316;BME280;74496;52.236;5.164;2024-01-16T03:09:43;100880.94;;;3.03;78.39
84316;BME280;74496;52.236;5.164;2024-01-16T03:12:09;100877.47;;;3.02;78.80
84316;BME280;74496;52.236;5.164;2024-01-16T03:14:36;100872.19;;;3.04;78.41
84316;BME280;74496;52.236;5.164;2024-01-16T03:17:05;100869.28;;;3.09;78.28
84316;BME280;74496;52.236;5.164;2024-01-16T03:19:32;100864.06;;;3.09;78.40
84316;BME280;74496;52.236;5.164;2024-01-16T03:21:59;100870.22;;;3.08;78.08
84316;BME280;74496;52.236;5.164;2024-01-16T03:24:25;100865.19;;;3.04;78.17
84316;BME280;74496;52.236;5.164;2024-01-16T03:26:52;100866.97;;;3.04;78.39
84316;BME280;74496;52.236;5.164;2024-01-16T03:29:19;100869.75;;;3.01;77.73
84316;BME280;74496;52.236;5.164;2024-01-16T03:31:46;100868.28;;;3.11;78.11
84316;BME280;74496;52.236;5.164;2024-01-16T03:34:14;100865.78;;;3.10;77.56
84316;BME280;74496;52.236;5.164;2024-01-16T03:36:41;100872.56;;;3.12;77.85
84316;BME280;74496;52.236;5.164;2024-01-16T03:39:07;100864.59;;;2.99;77.79
84316;BME280;74496;52.236;5.164;2024-01-16T03:41:35;100862.09;;;2.98;78.32
84316;BME280;74496;52.236;5.164;2024-01-16T03:44:02;100867.31;;;2.98;78.13
84316;BME280;74496;52.236;5.164;2024-01-16T03:46:28;100866.06;;;2.89;78.34
84316;BME280;74496;52.236;5.164;2024-01-16T03:48:55;100864.59;;;2.99;77.91
84316;BME280;74496;52.236;5.164;2024-01-16T03:51:23;100872.22;;;2.88;77.62
84316;BME280;74496;52.236;5.164;2024-01-16T03:53:50;100860.47;;;2.81;78.60
84316;BME280;74496;52.236;5.164;2024-01-16T03:56:16;100867.66;;;2.92;77.33
84316;BME280;74496;52.236;5.164;2024-01-16T03:58:43;100867.94;;;2.87;77.46
84316;BME280;74496;52.236;5.164;2024-01-16T04:01:10;100866.69;;;2.78;77.93
84316;BME280;74496;52.236;5.164;2024-01-16T04:03:38;100864.59;;;2.99;77.12
84316;BME280;74496;52.236;5.164;2024-01-16T04:06:14;100877.09;;;2.78;77.30
84316;BME280;74496;52.236;5.164;2024-01-16T04:08:42;100872.16;;;2.74;77.79
84316;BME280;74496;52.236;5.164;2024-01-16T04:11:12;100878.09;;;2.76;77.91
84316;BME280;74496;52.236;5.164;2024-01-16T04:13:39;100864.56;;;2.85;77.69
84316;BME280;74496;52.236;5.164;2024-01-16T04:16:06;100881.38;;;2.79;78.27
84316;BME280;74496;52.236;5.164;2024-01-16T04:18:35;100877.28;;;2.75;78.08
84316;BME280;74496;52.236;5.164;2024-01-16T04:21:02;100869.28;;;2.78;77.82
84316;BME280;74496;52.236;5.164;2024-01-16T04:23:29;100874.25;;;2.83;77.56
84316;BME280;74496;52.236;5.164;2024-01-16T04:25:58;100867.84;;;2.73;78.49
84316;BME280;74496;52.236;5.164;2024-01-16T04:28:25;100862.16;;;2.66;78.67
84316;BME280;74496;52.236;5.164;2024-01-16T04:30:51;100856.78;;;2.69;78.65
84316;BME280;74496;52.236;5.164;2024-01-16T04:33:18;100861.75;;;2.74;78.34
84316;BME280;74496;52.236;5.164;2024-01-16T04:35:45;100848.53;;;2.77;78.21
84316;BME280;74496;52.236;5.164;2024-01-16T04:38:12;100853.94;;;2.74;78.67
84316;BME280;74496;52.236;5.164;2024-01-16T04:40:38;100849.63;;;2.73;78.37
84316;BME280;74496;52.236;5.164;2024-01-16T04:43:07;100848.78;;;2.72;78.53
84316;BME280;74496;52.236;5.164;2024-01-16T04:45:34;100844.25;;;2.76;78.51
84316;BME280;74496;52.236;5.164;2024-01-16T04:48:00;100847.81;;;2.89;77.50
84316;BME280;74496;52.236;5.164;2024-01-16T04:50:28;100842.41;;;2.78;78.25
84316;BME280;74496;52.236;5.164;2024-01-16T04:52:57;100841.97;;;2.70;78.01
84316;BME280;74496;52.236;5.164;2024-01-16T04:55:25;100845.28;;;2.73;77.57
84316;BME280;74496;52.236;5.164;2024-01-16T04:57:52;100845.34;;;2.72;77.68
84316;BME280;74496;52.236;5.164;2024-01-16T05:00:20;100842.56;;;2.75;77.63
84316;BME280;74496;52.236;5.164;2024-01-16T05:02:47;100841.25;;;2.68;77.69
84316;BME280;74496;52.236;5.164;2024-01-16T05:05:14;100836.78;;;2.70;77.40
84316;BME280;74496;52.236;5.164;2024-01-16T05:07:41;100832.00;;;2.62;77.41
84316;BME280;74496;52.236;5.164;2024-01-16T05:10:10;100822.88;;;2.55;77.86
84316;BME280;74496;52.236;5.164;2024-01-16T05:12:38;100827.41;;;2.51;77.92
84316;BME280;74496;52.236;5.164;2024-01-16T05:15:06;100822.28;;;2.50;78.01
84316;BME280;74496;52.236;5.164;2024-01-16T05:17:34;100814.56;;;2.48;77.79
84316;BME280;74496;52.236;5.164;2024-01-16T05:20:02;100811.97;;;2.48;78.23
84316;BME280;74496;52.236;5.164;2024-01-16T05:22:30;100809.44;;;2.47;77.52
84316;BME280;74496;52.236;5.164;2024-01-16T05:24:58;100803.66;;;2.42;77.42
84316;BME280;74496;52.236;5.164;2024-01-16T05:27:24;100807.84;;;2.44;77.36
84316;BME280;74496;52.236;5.164;2024-01-16T05:29:51;100802.56;;;2.46;77.54
84316;BME280;74496;52.236;5.164;2024-01-16T05:32:18;100802.88;;;2.40;78.03
84316;BME280;74496;52.236;5.164;2024-01-16T05:34:46;100799.38;;;2.41;77.81
84316;BME280;74496;52.236;5.164;2024-01-16T05:37:13;100793.13;;;2.43;77.82
84316;BME280;74496;52.236;5.164;2024-01-16T05:39:39;100795.75;;;2.43;77.84
84316;BME280;74496;52.236;5.164;2024-01-16T05:42:06;100805.44;;;2.41;77.71
84316;BME280;74496;52.236;5.164;2024-01-16T05:44:33;100803.66;;;2.42;78.35
84316;BME280;74496;52.236;5.164;2024-01-16T05:47:00;100809.53;;;2.45;78.49
84316;BME280;74496;52.236;5.164;2024-01-16T05:49:27;100799.53;;;2.53;78.90
84316;BME280;74496;52.236;5.164;2024-01-16T05:51:55;100803.63;;;2.57;78.27
84316;BME280;74496;52.236;5.164;2024-01-16T05:54:22;100808.00;;;2.57;78.63
84316;BME280;74496;52.236;5.164;2024-01-16T05:56:49;100799.66;;;2.66;78.31
84316;BME280;74496;52.236;5.164;2024-01-16T05:59:16;100799.41;;;2.71;78.16
84316;BME280;74496;52.236;5.164;2024-01-16T06:01:43;100805.28;;;2.74;78.31
84316;BME280;74496;52.236;5.164;2024-01-16T06:04:10;100800.13;;;2.73;78.34
84316;BME280;74496;52.236;5.164;2024-01-16T06:06:37;100811.16;;;2.62;78.90
84316;BME280;74496;52.236;5.164;2024-01-16T06:09:05;100808.88;;;2.72;78.35
84316;BME280;74496;52.236;5.164;2024-01-16T06:11:33;100808.25;;;2.82;78.33
84316;BME280;74496;52.236;5.164;2024-01-16T06:14:02;100805.78;;;2.95;77.69
84316;BME280;74496;52.236;5.164;2024-01-16T06:16:29;100804.28;;;2.91;78.27
84316;BME280;74496;52.236;5.164;2024-01-16T06:18:55;100810.13;;;2.80;78.63
84316;BME280;74496;52.236;5.164;2024-01-16T06:21:22;100800.44;;;2.82;78.70
84316;BME280;74496;52.236;5.164;2024-01-16T06:23:49;100796.34;;;2.78;78.59
84316;BME280;74496;52.236;5.164;2024-01-16T06:26:17;100799.41;;;2.71;78.34
84316;BME280;74496;52.236;5.164;2024-01-16T06:28:44;100795.78;;;2.73;78.81
84316;BME280;74496;52.236;5.164;2024-01-16T06:31:11;100794.91;;;2.73;78.68
84316;BME280;74496;52.236;5.164;2024-01-16T06:33:38;100796.53;;;2.75;79.01
84316;BME280;74496;52.236;5.164;2024-01-16T06:36:05;100793.75;;;2.78;78.69
84316;BME280;74496;52.236;5.164;2024-01-16T06:38:32;100799.06;;;2.77;78.70
84316;BME280;74496;52.236;5.164;2024-01-16T06:40:59;100788.63;;;2.77;78.82
84316;BME280;74496;52.236;5.164;2024-01-16T06:43:27;100794.75;;;2.76;78.99
84316;BME280;74496;52.236;5.164;2024-01-16T06:45:54;100804.19;;;2.93;78.35
84316;BME280;74496;52.236;5.164;2024-01-16T06:48:20;100806.13;;;2.89;78.34
84316;BME280;74496;52.236;5.164;2024-01-16T06:50:47;100801.59;;;2.93;77.77
84316;BME280;74496;52.236;5.164;2024-01-16T06:53:13;100799.34;;;2.87;78.08
84316;BME280;74496;52.236;5.164;2024-01-16T06:55:40;100801.50;;;2.94;78.22
84316;BME280;74496;52.236;5.164;2024-01-16T06:58:07;100801.41;;;2.96;78.29
84316;BME280;74496;52.236;5.164;2024-01-16T07:00:36;100804.19;;;2.93;78.30
84316;BME280;74496;52.236;5.164;2024-01-16T07:03:03;100804.88;;;2.96;78.51
84316;BME280;74496;52.236;5.164;2024-01-16T07:05:30;100805.78;;;2.95;78.39
84316;BME280;74496;52.236;5.164;2024-01-16T07:07:57;100804.78;;;2.98;78.26
84316;BME280;74496;52.236;5.164;2024-01-16T07:10:23;100803.94;;;2.97;78.42
84316;BME280;74496;52.236;5.164;2024-01-16T07:12:50;100811.66;;;2.99;78.44
84316;BME280;74496;52.236;5.164;2024-01-16T07:15:17;100801.22;;;2.99;77.92
84316;BME280;74496;52.236;5.164;2024-01-16T07:17:45;100805.53;;;3.00;78.38
84316;BME280;74496;52.236;5.164;2024-01-16T07:20:12;100814.38;;;2.97;78.46
84316;BME280;74496;52.236;5.164;2024-01-16T07:22:39;100821.34;;;2.97;78.45
84316;BME280;74496;52.236;5.164;2024-01-16T07:25:06;100818.75;;;2.97;78.52
84316;BME280;74496;52.236;5.164;2024-01-16T07:27:33;100826.44;;;2.98;78.66
84316;BME280;74496;52.236;5.164;2024-01-16T07:30:00;100825.53;;;2.99;77.96
84316;BME280;74496;52.236;5.164;2024-01-16T07:32:26;100824.84;;;2.96;78.23
84316;BME280;74496;52.236;5.164;2024-01-16T07:34:54;100820.75;;;2.92;78.76
84316;BME280;74496;52.236;5.164;2024-01-16T07:37:21;100820.69;;;2.93;78.47
84316;BME280;74496;52.236;5.164;2024-01-16T07:39:48;100820.13;;;3.02;77.48
84316;BME280;74496;52.236;5.164;2024-01-16T07:42:15;100822.06;;;2.99;77.58
84316;BME280;74496;52.236;5.164;2024-01-16T07:44:41;100821.53;;;2.94;78.53
84316;BME280;74496;52.236;5.164;2024-01-16T07:47:08;100827.63;;;2.93;78.05
84316;BME280;74496;52.236;5.164;2024-01-16T07:49:35;100831.28;;;2.90;78.48
84316;BME280;74496;52.236;5.164;2024-01-16T07:52:04;100830.22;;;2.78;78.89
84316;BME280;74496;52.236;5.164;2024-01-16T07:54:31;100837.41;;;2.89;78.65
84316;BME280;74496;52.236;5.164;2024-01-16T07:56:57;100829.03;;;2.84;78.34
84316;BME280;74496;52.236;5.164;2024-01-16T07:59:24;100830.56;;;2.72;78.36
84316;BME280;74496;52.236;5.164;2024-01-16T08:01:51;100833.47;;;2.82;78.07
84316;BME280;74496;52.236;5.164;2024-01-16T08:04:18;100829.72;;;2.72;79.06
84316;BME280;74496;52.236;5.164;2024-01-16T08:06:45;100826.88;;;2.76;78.52
84316;BME280;74496;52.236;5.164;2024-01-16T08:09:14;100824.94;;;2.80;78.69
84316;BME280;74496;52.236;5.164;2024-01-16T08:11:41;100824.81;;;2.81;78.27
84316;BME280;74496;52.236;5.164;2024-01-16T08:14:08;100828.75;;;2.89;77.49
84316;BME280;74496;52.236;5.164;2024-01-16T08:16:35;100833.31;;;2.85;77.35
84316;BME280;74496;52.236;5.164;2024-01-16T08:19:01;100831.16;;;2.77;77.63
84316;BME280;74496;52.236;5.164;2024-01-16T08:21:28;100821.66;;;2.76;77.85
84316;BME280;74496;52.236;5.164;2024-01-16T08:23:55;100820.63;;;2.79;77.74
84316;BME280;74496;52.236;5.164;2024-01-16T08:26:23;100819.72;;;2.80;77.39
84316;BME280;74496;52.236;5.164;2024-01-16T08:28:50;100818.97;;;2.78;77.66
84316;BME280;74496;52.236;5.164;2024-01-16T08:31:17;100818.97;;;2.78;77.41
84316;BME280;74496;52.236;5.164;2024-01-16T08:33:44;100823.56;;;2.73;77.18
84316;BME280;74496;52.236;5.164;2024-01-16T08:36:11;100812.16;;;2.75;76.94
84316;BME280;74496;52.236;5.164;2024-01-16T08:38:38;100823.75;;;2.70;77.07
84316;BME280;74496;52.236;5.164;2024-01-16T08:41:05;100823.34;;;2.62;77.19
84316;BME280;74496;52.236;5.164;2024-01-16T08:43:33;100816.38;;;2.62;77.28
84316;BME280;74496;52.236;5.164;2024-01-16T08:46:00;100813.94;;;2.59;77.15
84316;BME280;74496;52.236;5.164;2024-01-16T08:48:27;100816.22;;;2.65;77.11
84316;BME280;74496;52.236;5.164;2024-01-16T08:50:54;100820.66;;;2.63;77.07
84316;BME280;74496;52.236;5.164;2024-01-16T08:53:20;100829.50;;;2.61;76.59
84316;BME280;74496;52.236;5.164;2024-01-16T08:55:50;100821.84;;;2.57;76.91
84316;BME280;74496;52.236;5.164;2024-01-16T08:58:20;100818.16;;;2.62;76.18
84316;BME280;74496;52.236;5.164;2024-01-16T09:00:48;100817.81;;;2.68;76.46
84316;BME280;74496;52.236;5.164;2024-01-16T09:03:15;100812.50;;;2.69;76.32
84316;BME280;74496;52.236;5.164;2024-01-16T09:05:41;100815.75;;;2.73;75.67
84316;BME280;74496;52.236;5.164;2024-01-16T09:08:08;100808.06;;;2.71;76.12
84316;BME280;74496;52.236;5.164;2024-01-16T09:10:35;100813.59;;;2.65;75.64
84316;BME280;74496;52.236;5.164;2024-01-16T09:13:02;100815.94;;;2.70;75.42
84316;BME280;74496;52.236;5.164;2024-01-16T09:15:28;100813.44;;;2.68;75.41
84316;BME280;74496;52.236;5.164;2024-01-16T09:17:56;100816.63;;;2.73;75.74
84316;BME280;74496;52.236;5.164;2024-01-16T09:20:23;100805.88;;;2.64;75.66
84316;BME280;74496;52.236;5.164;2024-01-16T09:22:50;100814.72;;;2.61;75.42
84316;BME280;74496;52.236;5.164;2024-01-16T09:25:16;100817.31;;;2.61;75.57
84316;BME280;74496;52.236;5.164;2024-01-16T09:27:43;100820.09;;;2.58;76.31
84316;BME280;74496;52.236;5.164;2024-01-16T09:30:11;100820.47;;;2.66;75.20
84316;BME280;74496;52.236;5.164;2024-01-16T09:32:38;100825.97;;;2.62;75.46
84316;BME280;74496;52.236;5.164;2024-01-16T09:35:07;100825.97;;;2.62;75.71
84316;BME280;74496;52.236;5.164;2024-01-16T09:37:34;100818.38;;;2.73;74.75
84316;BME280;74496;52.236;5.164;2024-01-16T09:40:01;100817.88;;;2.66;75.15
84316;BME280;74496;52.236;5.164;2024-01-16T09:42:30;100815.09;;;2.69;75.05
84316;BME280;74496;52.236;5.164;2024-01-16T09:44:57;100815.34;;;2.80;75.37
84316;BME280;74496;52.236;5.164;2024-01-16T09:47:26;100814.81;;;2.90;74.68
84316;BME280;74496;52.236;5.164;2024-01-16T09:49:54;100809.50;;;2.91;74.92
84316;BME280;74496;52.236;5.164;2024-01-16T09:52:23;100805.22;;;2.90;75.42
84316;BME280;74496;52.236;5.164;2024-01-16T09:54:49;100802.06;;;2.99;74.46
84316;BME280;74496;52.236;5.164;2024-01-16T09:57:18;100800.63;;;3.10;74.36
84316;BME280;74496;52.236;5.164;2024-01-16T09:59:47;100794.00;;;3.04;74.56
84316;BME280;74496;52.236;5.164;2024-01-16T10:02:14;100798.09;;;3.08;74.36
84316;BME280;74496;52.236;5.164;2024-01-16T10:04:41;100801.53;;;3.09;73.87
84316;BME280;74496;52.236;5.164;2024-01-16T10:07:09;100786.66;;;3.25;73.53
84316;BME280;74496;52.236;5.164;2024-01-16T10:09:39;100787.19;;;3.16;73.95
84316;BME280;74496;52.236;5.164;2024-01-16T10:12:06;100786.28;;;3.17;74.77
84316;BME280;74496;52.236;5.164;2024-01-16T10:14:33;100790.31;;;3.37;73.65
84316;BME280;74496;52.236;5.164;2024-01-16T10:17:01;100788.44;;;3.53;73.14
84316;BME280;74496;52.236;5.164;2024-01-16T10:19:31;100784.91;;;3.54;73.03
84316;BME280;74496;52.236;5.164;2024-01-16T10:22:02;100778.38;;;3.61;72.88
84316;BME280;74496;52.236;5.164;2024-01-16T10:24:29;100778.84;;;3.82;71.65
84316;BME280;74496;52.236;5.164;2024-01-16T10:26:59;100778.47;;;3.74;71.69
84316;BME280;74496;52.236;5.164;2024-01-16T10:29:28;100781.63;;;3.65;72.66
84316;BME280;74496;52.236;5.164;2024-01-16T10:31:54;100784.25;;;3.65;72.77
84316;BME280;74496;52.236;5.164;2024-01-16T10:34:22;100779.47;;;3.71;72.63
84316;BME280;74496;52.236;5.164;2024-01-16T10:36:50;100786.28;;;3.74;70.84
84316;BME280;74496;52.236;5.164;2024-01-16T10:39:18;100778.09;;;3.80;71.88
84316;BME280;74496;52.236;5.164;2024-01-16T10:41:54;100779.63;;;3.97;70.77
84316;BME280;74496;52.236;5.164;2024-01-16T10:44:22;100781.03;;;4.03;70.57
84316;BME280;74496;52.236;5.164;2024-01-16T10:46:49;100779.06;;;4.06;71.37
84316;BME280;74496;52.236;5.164;2024-01-16T10:49:16;100786.31;;;4.01;71.16
84316;BME280;74496;52.236;5.164;2024-01-16T10:51:43;100789.38;;;4.08;69.46
84316;BME280;74496;52.236;5.164;2024-01-16T10:54:12;100789.69;;;4.03;71.35
84316;BME280;74496;52.236;5.164;2024-01-16T10:56:44;100783.59;;;4.17;71.05
84316;BME280;74496;52.236;5.164;2024-01-16T10:59:18;100766.47;;;4.13;69.84
84316;BME280;74496;52.236;5.164;2024-01-16T11:01:49;100765.13;;;4.20;69.88
84316;BME280;74496;52.236;5.164;2024-01-16T11:04:20;100757.69;;;4.41;68.81
84316;BME280;74496;52.236;5.164;2024-01-16T11:06:47;100768.72;;;4.32;69.04
84316;BME280;74496;52.236;5.164;2024-01-16T11:09:16;100759.19;;;4.18;69.15
84316;BME280;74496;52.236;5.164;2024-01-16T11:11:43;100759.25;;;4.16;70.66
84316;BME280;74496;52.236;5.164;2024-01-16T11:14:12;100755.38;;;4.09;70.89
84316;BME280;74496;52.236;5.164;2024-01-16T11:16:41;100756.16;;;4.24;69.32
84316;BME280;74496;52.236;5.164;2024-01-16T11:19:09;100747.59;;;4.22;69.97
84316;BME280;74496;52.236;5.164;2024-01-16T11:21:37;100743.72;;;4.28;69.70
84316;BME280;74496;52.236;5.164;2024-01-16T11:24:05;100735.06;;;4.54;69.09
84316;BME280;74496;52.236;5.164;2024-01-16T11:26:33;100741.31;;;4.52;68.11
84316;BME280;74496;52.236;5.164;2024-01-16T11:29:34;100727.50;;;4.50;67.95
84316;BME280;74496;52.236;5.164;2024-01-16T11:32:02;100728.38;;;4.76;67.55
84316;BME280;74496;52.236;5.164;2024-01-16T11:34:55;100717.94;;;4.88;66.20
84316;BME280;74496;52.236;5.164;2024-01-16T11:37:27;100725.88;;;5.12;66.75
84316;BME280;74496;52.236;5.164;2024-01-16T11:40:20;100722.56;;;5.23;65.95
84316;BME280;74496;52.236;5.164;2024-01-16T11:42:47;100725.88;;;5.25;65.09
84316;BME280;74496;52.236;5.164;2024-01-16T11:45:48;100719.28;;;5.45;65.95
84316;BME280;74496;52.236;5.164;2024-01-16T11:48:16;100708.00;;;5.69;62.87
84316;BME280;74496;52.236;5.164;2024-01-16T11:50:46;100714.16;;;5.44;66.68
84316;BME280;74496;52.236;5.164;2024-01-16T11:53:41;100709.34;;;5.37;65.02
84316;BME280;74496;52.236;5.164;2024-01-16T11:56:15;100706.19;;;5.45;63.16
84316;BME280;74496;52.236;5.164;2024-01-16T11:58:48;100701.72;;;5.34;65.29
84316;BME280;74496;52.236;5.164;2024-01-16T12:01:19;100710.81;;;5.29;67.21
84316;BME280;74496;52.236;5.164;2024-01-16T12:03:46;100703.50;;;5.21;68.43
84316;BME280;74496;52.236;5.164;2024-01-16T12:06:16;100705.72;;;5.14;66.75
84316;BME280;74496;52.236;5.164;2024-01-16T12:08:43;100701.72;;;5.22;65.74
84316;BME280;74496;52.236;5.164;2024-01-16T12:11:09;100705.19;;;5.22;63.99
84316;BME280;74496;52.236;5.164;2024-01-16T12:13:36;100701.66;;;5.10;65.98
84316;BME280;74496;52.236;5.164;2024-01-16T12:16:05;100702.06;;;5.17;66.59
84316;BME280;74496;52.236;5.164;2024-01-16T12:18:32;100700.97;;;5.32;65.71
84316;BME280;74496;52.236;5.164;2024-01-16T12:21:07;100701.72;;;5.34;64.50
84316;BME280;74496;52.236;5.164;2024-01-16T12:23:36;100707.28;;;5.30;65.47
84316;BME280;74496;52.236;5.164;2024-01-16T12:26:03;100705.09;;;5.24;65.93
84316;BME280;74496;52.236;5.164;2024-01-16T12:28:29;100700.25;;;5.30;64.57
84316;BME280;74496;52.236;5.164;2024-01-16T12:30:56;100703.09;;;5.27;65.57
84316;BME280;74496;52.236;5.164;2024-01-16T12:33:23;100690.19;;;5.50;63.25
84316;BME280;74496;52.236;5.164;2024-01-16T12:35:50;100687.47;;;5.38;62.91
84316;BME280;74496;52.236;5.164;2024-01-16T12:38:17;100690.63;;;5.44;64.29
84316;BME280;74496;52.236;5.164;2024-01-16T12:40:47;100679.56;;;5.64;64.41
84316;BME280;74496;52.236;5.164;2024-01-16T12:43:16;100692.47;;;5.54;62.55
84316;BME280;74496;52.236;5.164;2024-01-16T12:45:44;100679.06;;;5.46;64.25
84316;BME280;74496;52.236;5.164;2024-01-16T12:48:11;100686.72;;;5.49;64.45
84316;BME280;74496;52.236;5.164;2024-01-16T12:50:38;100682.81;;;5.92;62.89
84316;BME280;74496;52.236;5.164;2024-01-16T12:53:05;100677.78;;;5.64;63.00
84316;BME280;74496;52.236;5.164;2024-01-16T12:55:36;100683.38;;;5.47;63.48
84316;BME280;74496;52.236;5.164;2024-01-16T12:58:17;100674.94;;;5.68;63.36
84316;BME280;74496;52.236;5.164;2024-01-16T13:00:45;100676.97;;;5.51;64.56
84316;BME280;74496;52.236;5.164;2024-01-16T13:03:15;100674.72;;;5.47;63.37